createdAt,value
2022-08-14T00:02:27.675Z,98671.35
2022-08-14T00:04:56.560Z,98674.66
2022-08-14T00:07:24.918Z,98669.46
2022-08-14T00:09:56.354Z,98671.02
2022-08-14T00:12:56.617Z,98667.08
2022-08-14T00:15:43.554Z,98663.27
2022-08-14T00:18:30.385Z,98658.70
2022-08-14T00:21:11.283Z,98659.81
2022-08-14T00:23:40.733Z,98655.61
2022-08-14T00:26:21.502Z,98652.60
2022-08-14T00:28:53.147Z,98654.05
2022-08-14T00:31:34.773Z,98652.84
2022-08-14T00:34:36.448Z,98645.64
2022-08-14T00:36:59.413Z,98643.98
2022-08-14T00:39:27.742Z,98639.90
2022-08-14T00:41:56.002Z,98638.14
2022-08-14T00:44:32.006Z,98632.41
2022-08-14T00:47:03.789Z,98631.63
2022-08-14T00:49:38.022Z,98633.18
2022-08-14T00:52:18.254Z,98629.98
2022-08-14T00:54:57.918Z,98629.11
2022-08-14T00:57:29.938Z,98628.83
2022-08-14T01:00:00.663Z,98627.99
2022-08-14T01:02:31.769Z,98629.30
2022-08-14T01:05:07.861Z,98626.52
2022-08-14T01:07:38.903Z,98626.30
2022-08-14T01:10:22.562Z,98626.98
2022-08-14T01:12:51.463Z,98623.02
2022-08-14T01:15:31.643Z,98621.17
2022-08-14T01:18:30.887Z,98620.20
2022-08-14T01:21:26.148Z,98616.81
2022-08-14T01:23:57.103Z,98617.29
2022-08-14T01:26:34.550Z,98617.30
2022-08-14T01:29:06.297Z,98614.59
2022-08-14T01:31:41.609Z,98616.05
2022-08-14T01:35:18.130Z,98616.05
2022-08-14T01:37:00.029Z,98617.45
2022-08-14T01:39:32.087Z,98611.94
2022-08-14T01:42:01.248Z,98613.88
2022-08-14T01:44:34.532Z,98613.65
2022-08-14T01:47:21.911Z,98610.02
2022-08-14T01:49:59.688Z,98610.02
2022-08-14T01:52:59.008Z,98609.80
2022-08-14T01:55:31.541Z,98606.02
2022-08-14T01:58:20.361Z,98609.13
2022-08-14T02:00:56.515Z,98606.89
2022-08-14T02:03:29.932Z,98605.52
2022-08-14T02:06:03.841Z,98605.58
2022-08-14T02:08:53.300Z,98603.98
2022-08-14T02:11:26.008Z,98607.16
2022-08-14T02:13:59.705Z,98605.61
2022-08-14T02:16:39.544Z,98600.58
2022-08-14T02:19:15.305Z,98601.59
2022-08-14T02:21:48.732Z,98598.50
2022-08-14T02:24:39.523Z,98598.42
2022-08-14T02:28:25.369Z,98599.50
2022-08-14T02:30:02.196Z,98597.25
2022-08-14T02:32:44.644Z,98595.17
2022-08-14T02:35:21.934Z,98594.80
2022-08-14T02:37:50.866Z,98594.88
2022-08-14T02:40:31.776Z,98595.62
2022-08-14T02:43:03.435Z,98597.52
2022-08-14T02:45:38.784Z,98593.74
2022-08-14T02:49:03.798Z,98592.98
2022-08-14T02:51:12.663Z,98593.94
2022-08-14T02:53:45.737Z,98594.55
2022-08-14T02:56:30.465Z,98588.98
2022-08-14T02:59:09.652Z,98593.05
2022-08-14T03:01:43.900Z,98591.84
2022-08-14T03:04:20.330Z,98590.64
2022-08-14T03:06:57.501Z,98588.52
2022-08-14T03:09:41.706Z,98591.39
2022-08-14T03:12:26.985Z,98583.03
2022-08-14T03:15:16.225Z,98582.58
2022-08-14T03:17:56.438Z,98584.35
2022-08-14T03:20:29.261Z,98580.70
2022-08-14T03:23:02.954Z,98581.16
2022-08-14T03:25:37.368Z,98584.20
2022-08-14T03:28:08.302Z,98581.96
2022-08-14T03:30:43.862Z,98581.48
2022-08-14T03:33:13.091Z,98583.92
2022-08-14T03:36:05.677Z,98580.67
2022-08-14T03:39:10.404Z,98577.20
2022-08-14T03:41:24.597Z,98580.92
2022-08-14T03:44:01.299Z,98584.58
2022-08-14T03:46:54.562Z,98585.12
2022-08-14T03:49:28.853Z,98587.94
2022-08-14T03:52:00.641Z,98585.29
2022-08-14T03:54:29.987Z,98587.04
2022-08-14T03:57:02.759Z,98587.23
2022-08-14T03:59:32.909Z,98589.11
2022-08-14T04:02:04.531Z,98586.55
2022-08-14T04:04:33.424Z,98584.81
2022-08-14T04:07:02.047Z,98583.69
2022-08-14T04:09:30.334Z,98580.09
2022-08-14T04:12:00.100Z,98581.36
2022-08-14T04:14:30.320Z,98581.81
2022-08-14T04:16:58.629Z,98581.89
2022-08-14T04:19:28.345Z,98580.95
2022-08-14T04:22:03.197Z,98580.85
2022-08-14T04:24:38.088Z,98585.84
2022-08-14T04:27:10.466Z,98586.33
2022-08-14T04:29:44.928Z,98585.77
2022-08-14T04:32:58.749Z,98584.43
2022-08-14T04:35:07.630Z,98585.55
2022-08-14T04:37:58.415Z,98583.27
2022-08-14T04:40:45.758Z,98580.02
2022-08-14T04:43:39.214Z,98579.48
2022-08-14T04:46:56.734Z,98580.40
2022-08-14T04:49:07.778Z,98583.07
2022-08-14T04:51:46.487Z,98583.81
2022-08-14T04:54:22.665Z,98581.43
2022-08-14T04:56:55.147Z,98584.16
2022-08-14T04:59:25.303Z,98585.98
2022-08-14T05:01:57.249Z,98584.56
2022-08-14T05:04:26.042Z,98586.45
2022-08-14T05:06:55.534Z,98587.15
2022-08-14T05:09:29.054Z,98586.43
2022-08-14T05:13:10.758Z,98587.21
2022-08-14T05:14:55.067Z,98585.45
2022-08-14T05:17:31.839Z,98583.85
2022-08-14T05:21:04.295Z,98582.39
2022-08-14T05:23:02.297Z,98583.79
2022-08-14T05:25:33.602Z,98581.77
2022-08-14T05:28:20.541Z,98587.36
2022-08-14T05:30:55.630Z,98586.35
2022-08-14T05:33:28.569Z,98589.02
2022-08-14T05:36:01.268Z,98592.89
2022-08-14T05:38:35.211Z,98588.58
2022-08-14T05:41:06.458Z,98587.39
2022-08-14T05:43:41.116Z,98589.84
2022-08-14T05:46:15.323Z,98588.12
2022-08-14T05:48:48.941Z,98582.42
2022-08-14T05:51:17.537Z,98577.52
2022-08-14T05:54:00.217Z,98579.98
2022-08-14T05:56:37.085Z,98579.41
2022-08-14T05:59:05.861Z,98587.65
2022-08-14T06:01:35.774Z,98587.46
2022-08-14T06:04:05.168Z,98589.30
2022-08-14T06:06:38.093Z,98581.70
2022-08-14T06:09:09.862Z,98585.48
2022-08-14T06:11:38.574Z,98585.19
2022-08-14T06:14:21.117Z,98588.05
2022-08-14T06:16:53.226Z,98585.92
2022-08-14T06:19:23.350Z,98585.27
2022-08-14T06:21:59.239Z,98583.83
2022-08-14T06:24:30.732Z,98585.67
2022-08-14T06:27:06.093Z,98591.77
2022-08-14T06:29:39.160Z,98594.72
2022-08-14T06:32:37.362Z,98598.35
2022-08-14T06:35:09.256Z,98589.89
2022-08-14T06:38:04.492Z,98590.70
2022-08-14T06:40:36.522Z,98593.45
2022-08-14T06:43:15.264Z,98596.30
2022-08-14T06:45:50.375Z,98602.63
2022-08-14T06:48:24.512Z,98605.77
2022-08-14T06:50:54.868Z,98602.00
2022-08-14T06:53:28.124Z,98601.63
2022-08-14T06:56:00.871Z,98598.46
2022-08-14T06:58:32.160Z,98596.33
2022-08-14T07:01:26.699Z,98595.12
2022-08-14T07:04:24.158Z,98598.36
2022-08-14T07:06:55.554Z,98597.29
2022-08-14T07:09:43.804Z,98595.27
2022-08-14T07:12:55.074Z,98592.79
2022-08-14T07:15:06.398Z,98592.94
2022-08-14T07:17:36.493Z,98591.08
2022-08-14T07:20:07.253Z,98588.65
2022-08-14T07:22:55.879Z,98591.17
2022-08-14T07:25:32.185Z,98587.12
2022-08-14T07:28:08.502Z,98587.70
2022-08-14T07:30:51.539Z,98582.36
2022-08-14T07:33:24.575Z,98579.28
2022-08-14T07:35:59.091Z,98577.84
2022-08-14T07:38:35.800Z,98581.41
2022-08-14T07:41:14.418Z,98584.69
2022-08-14T07:43:47.497Z,98587.83
2022-08-14T07:46:29.600Z,98592.58
2022-08-14T07:48:59.768Z,98597.31
2022-08-14T07:51:34.474Z,98604.48
2022-08-14T07:54:11.345Z,98597.14
2022-08-14T07:56:46.603Z,98592.79
2022-08-14T07:59:41.559Z,98588.38
2022-08-14T08:02:18.589Z,98587.98
2022-08-14T08:04:54.945Z,98582.41
2022-08-14T08:07:29.519Z,98585.97
2022-08-14T08:10:46.182Z,98585.86
2022-08-14T08:13:17.092Z,98584.66
2022-08-14T08:15:54.466Z,98585.22
2022-08-14T08:18:27.288Z,98582.10
2022-08-14T08:20:59.680Z,98581.52
2022-08-14T08:23:40.917Z,98579.83
2022-08-14T08:26:12.323Z,98580.27
2022-08-14T08:28:43.831Z,98582.28
2022-08-14T08:31:12.978Z,98581.33
2022-08-14T08:33:49.411Z,98584.13
2022-08-14T08:36:19.070Z,98581.19
2022-08-14T08:39:17.568Z,98582.27
2022-08-14T08:41:45.821Z,98584.77
2022-08-14T08:44:31.628Z,98581.90
2022-08-14T08:47:08.577Z,98576.85
2022-08-14T08:49:48.271Z,98574.92
2022-08-14T08:52:31.578Z,98574.67
2022-08-14T08:55:04.648Z,98577.05
2022-08-14T08:57:38.067Z,98577.12
2022-08-14T09:00:24.157Z,98580.97
2022-08-14T09:02:57.829Z,98581.55
2022-08-14T09:05:26.983Z,98580.90
2022-08-14T09:07:56.622Z,98578.00
2022-08-14T09:10:27.251Z,98576.20
2022-08-14T09:12:57.606Z,98580.66
2022-08-14T09:15:36.770Z,98579.49
2022-08-14T09:18:14.351Z,98580.89
2022-08-14T09:20:49.477Z,98578.23
2022-08-14T09:23:17.946Z,98573.50
2022-08-14T09:25:59.650Z,98573.33
2022-08-14T09:28:30.638Z,98570.35
2022-08-14T09:31:17.345Z,98566.14
2022-08-14T09:34:09.257Z,98569.94
2022-08-14T09:36:56.977Z,98567.27
2022-08-14T09:39:38.838Z,98566.64
2022-08-14T09:42:45.190Z,98565.77
2022-08-14T09:45:24.121Z,98570.21
2022-08-14T09:47:57.458Z,98568.59
2022-08-14T09:50:33.054Z,98566.38
2022-08-14T09:53:04.728Z,98562.80
2022-08-14T09:55:42.419Z,98561.76
2022-08-14T09:58:19.654Z,98562.61
2022-08-14T10:01:00.777Z,98564.89
2022-08-14T10:03:36.403Z,98558.45
2022-08-14T10:06:07.487Z,98556.41
2022-08-14T10:08:51.182Z,98557.65
2022-08-14T10:11:36.582Z,98559.81
2022-08-14T10:14:21.127Z,98563.98
2022-08-14T10:17:07.057Z,98561.13
2022-08-14T10:19:48.623Z,98560.40
2022-08-14T10:23:21.874Z,98558.60
2022-08-14T10:25:15.601Z,98556.38
2022-08-14T10:27:56.896Z,98548.71
2022-08-14T10:30:35.239Z,98547.02
2022-08-14T10:33:04.063Z,98545.57
2022-08-14T10:35:47.856Z,98546.89
2022-08-14T10:38:36.670Z,98550.89
2022-08-14T10:41:15.459Z,98550.52
2022-08-14T10:44:04.754Z,98551.35
2022-08-14T10:47:41.474Z,98552.85
2022-08-14T10:49:59.886Z,98556.84
2022-08-14T10:52:33.987Z,98559.42
2022-08-14T10:55:08.322Z,98557.48
2022-08-14T10:57:48.602Z,98561.37
2022-08-14T11:00:30.152Z,98563.14
2022-08-14T11:03:10.974Z,98571.05
2022-08-14T11:05:41.994Z,98570.09
2022-08-14T11:08:13.022Z,98571.39
2022-08-14T11:10:47.882Z,98569.25
2022-08-14T11:13:19.764Z,98569.54
2022-08-14T11:15:49.746Z,98565.65
2022-08-14T11:18:20.305Z,98561.50
2022-08-14T11:21:01.935Z,98553.63
2022-08-14T11:23:39.854Z,98550.47
2022-08-14T11:26:10.651Z,98550.52
2022-08-14T11:28:47.873Z,98549.21
2022-08-14T11:31:23.970Z,98553.23
2022-08-14T11:33:58.388Z,98557.06
2022-08-14T11:36:57.138Z,98555.98
2022-08-14T11:39:34.842Z,98557.33
2022-08-14T11:42:57.688Z,98558.64
2022-08-14T11:45:04.593Z,98559.52
2022-08-14T11:47:43.664Z,98564.23
2022-08-14T11:50:37.830Z,98566.94
2022-08-14T11:53:08.577Z,98570.08
2022-08-14T11:55:39.318Z,98578.60
2022-08-14T11:58:11.310Z,98575.17
2022-08-14T12:00:53.812Z,98575.48
2022-08-14T12:03:37.818Z,98577.66
2022-08-14T12:06:29.043Z,98582.27
2022-08-14T12:09:04.795Z,98574.01
2022-08-14T12:11:43.835Z,98571.75
2022-08-14T12:14:34.568Z,98565.55
2022-08-14T12:17:12.648Z,98558.09
2022-08-14T12:19:51.439Z,98557.95
2022-08-14T12:22:36.249Z,98551.58
2022-08-14T12:25:11.269Z,98548.10
2022-08-14T12:27:53.318Z,98547.76
2022-08-14T12:30:40.027Z,98542.44
2022-08-14T12:33:27.121Z,98538.98
2022-08-14T12:36:04.791Z,98536.80
2022-08-14T12:38:38.564Z,98533.52
2022-08-14T12:41:21.079Z,98531.21
2022-08-14T12:43:53.832Z,98529.49
2022-08-14T12:46:27.116Z,98529.40
2022-08-14T12:48:59.592Z,98522.86
2022-08-14T12:51:28.898Z,98523.17
2022-08-14T12:54:00.560Z,98521.54
2022-08-14T12:56:33.700Z,98519.93
2022-08-14T12:59:04.964Z,98511.98
2022-08-14T13:01:59.697Z,98505.67
2022-08-14T13:04:24.060Z,98497.44
2022-08-14T13:06:53.081Z,98487.36
2022-08-14T13:09:23.287Z,98490.07
2022-08-14T13:11:59.036Z,98488.07
2022-08-14T13:14:47.991Z,98484.95
2022-08-14T13:17:17.519Z,98480.93
2022-08-14T13:19:47.061Z,98480.84
2022-08-14T13:22:28.839Z,98476.88
2022-08-14T13:25:05.088Z,98481.52
2022-08-14T13:27:38.534Z,98479.05
2022-08-14T13:30:23.374Z,98475.19
2022-08-14T13:32:58.431Z,98470.05
2022-08-14T13:35:27.533Z,98461.66
2022-08-14T13:37:57.622Z,98456.14
2022-08-14T13:40:27.192Z,98450.61
2022-08-14T13:42:57.560Z,98448.50
2022-08-14T13:45:33.914Z,98446.64
2022-08-14T13:48:27.443Z,98445.74
2022-08-14T13:51:07.864Z,98438.06
2022-08-14T13:54:07.127Z,98432.45
2022-08-14T13:56:39.563Z,98430.95
2022-08-14T13:59:08.961Z,98431.86
2022-08-14T14:01:39.175Z,98429.79
2022-08-14T14:04:19.545Z,98430.86
2022-08-14T14:06:51.191Z,98434.09
2022-08-14T14:09:32.629Z,98433.14
2022-08-14T14:12:37.365Z,98433.11
2022-08-14T14:15:05.055Z,98432.91
2022-08-14T14:17:36.106Z,98435.89
2022-08-14T14:20:15.201Z,98434.27
2022-08-14T14:23:03.524Z,98433.18
2022-08-14T14:25:46.296Z,98428.30
2022-08-14T14:28:23.993Z,98428.11
2022-08-14T14:30:57.477Z,98421.50
2022-08-14T14:33:49.572Z,98422.00
2022-08-14T14:36:22.137Z,98429.50
2022-08-14T14:38:53.187Z,98432.40
2022-08-14T14:41:24.270Z,98433.92
2022-08-14T14:43:54.622Z,98430.09
2022-08-14T14:46:36.218Z,98429.54
2022-08-14T14:49:08.731Z,98427.54
2022-08-14T14:51:41.801Z,98431.92
2022-08-14T14:54:13.285Z,98433.14
2022-08-14T14:56:51.625Z,98434.63
2022-08-14T14:59:23.263Z,98435.10
2022-08-14T15:01:59.716Z,98434.60
2022-08-14T15:04:27.994Z,98433.08
2022-08-14T15:06:56.922Z,98434.64
2022-08-14T15:09:25.149Z,98440.67
2022-08-14T15:11:53.379Z,98439.23
2022-08-14T15:14:55.433Z,98444.59
2022-08-14T15:17:10.562Z,98444.50
2022-08-14T15:19:39.755Z,98445.06
2022-08-14T15:22:10.707Z,98434.59
2022-08-14T15:24:39.921Z,98429.01
2022-08-14T15:27:09.497Z,98423.61
2022-08-14T15:29:43.068Z,98422.75
2022-08-14T15:32:11.882Z,98420.16
2022-08-14T15:34:51.792Z,98420.55
2022-08-14T15:37:23.115Z,98418.16
2022-08-14T15:39:52.400Z,98418.38
2022-08-14T15:42:23.631Z,98415.41
2022-08-14T15:44:58.283Z,98418.61
2022-08-14T15:47:32.180Z,98418.91
2022-08-14T15:50:04.975Z,98421.31
2022-08-14T15:52:37.441Z,98418.80
2022-08-14T15:55:15.549Z,98423.16
2022-08-14T15:58:01.338Z,98417.98
2022-08-14T16:00:52.649Z,98413.03
2022-08-14T16:03:27.260Z,98406.00
2022-08-14T16:06:11.188Z,98400.87
2022-08-14T16:08:58.567Z,98394.77
2022-08-14T16:11:33.050Z,98390.86
2022-08-14T16:14:01.984Z,98391.98
2022-08-14T16:16:50.462Z,98392.81
2022-08-14T16:19:26.646Z,98391.46
2022-08-14T16:22:56.785Z,98397.29
2022-08-14T16:27:43.252Z,98397.77
2022-08-14T16:30:20.817Z,98403.95
2022-08-14T16:32:56.842Z,98405.58
2022-08-14T16:35:42.801Z,98412.92
2022-08-14T16:38:44.683Z,98412.36
2022-08-14T16:41:22.020Z,98414.61
2022-08-14T16:44:23.258Z,98410.09
2022-08-14T16:47:04.040Z,98408.27
2022-08-14T16:50:04.166Z,98412.26
2022-08-14T16:52:26.523Z,98405.83
2022-08-14T16:55:14.257Z,98410.61
2022-08-14T16:57:51.995Z,98417.12
2022-08-14T17:00:28.757Z,98422.37
2022-08-14T17:03:08.652Z,98421.80
2022-08-14T17:05:43.887Z,98413.71
2022-08-14T17:08:42.742Z,98417.52
2022-08-14T17:11:10.909Z,98416.02
2022-08-14T17:13:58.408Z,98418.72
2022-08-14T17:16:37.840Z,98417.27
2022-08-14T17:19:13.855Z,98419.38
2022-08-14T17:21:46.838Z,98414.33
2022-08-14T17:24:58.319Z,98409.01
2022-08-14T17:27:10.517Z,98411.69
2022-08-14T17:29:54.301Z,98409.25
2022-08-14T17:32:56.178Z,98405.84
2022-08-14T17:35:38.952Z,98405.00
2022-08-14T17:38:38.735Z,98405.79
2022-08-14T17:42:02.777Z,98403.19
2022-08-14T17:44:45.795Z,98400.98
2022-08-14T17:47:18.086Z,98398.75
2022-08-14T17:49:52.005Z,98396.05
2022-08-14T17:52:34.257Z,98400.96
2022-08-14T17:55:06.854Z,98402.48
2022-08-14T17:57:40.813Z,98404.39
2022-08-14T18:00:15.461Z,98408.39
2022-08-14T18:02:51.350Z,98408.17
2022-08-14T18:05:22.954Z,98409.13
2022-08-14T18:08:32.290Z,98408.20
2022-08-14T18:10:56.105Z,98409.98
2022-08-14T18:13:51.281Z,98412.97
2022-08-14T18:16:19.781Z,98419.10
2022-08-14T18:18:50.198Z,98424.12
2022-08-14T18:21:23.905Z,98429.14
2022-08-14T18:23:53.988Z,98430.17
2022-08-14T18:26:37.192Z,98436.98
2022-08-14T18:29:15.066Z,98433.14
2022-08-14T18:31:45.403Z,98433.30
2022-08-14T18:34:31.097Z,98432.88
2022-08-14T18:37:13.862Z,98439.53
2022-08-14T18:40:00.994Z,98444.30
2022-08-14T18:42:34.857Z,98442.08
2022-08-14T18:45:12.732Z,98444.67
2022-08-14T18:48:14.571Z,98447.91
2022-08-14T18:50:46.412Z,98450.99
2022-08-14T18:53:17.579Z,98444.70
2022-08-14T18:55:54.121Z,98438.76
2022-08-14T18:58:30.892Z,98432.20
2022-08-14T19:01:06.324Z,98431.02
2022-08-14T19:03:36.861Z,98431.39
2022-08-14T19:06:09.980Z,98435.26
2022-08-14T19:08:44.311Z,98439.74
2022-08-14T19:11:34.430Z,98441.73
2022-08-14T19:14:05.477Z,98437.11
2022-08-14T19:16:35.564Z,98440.80
2022-08-14T19:19:09.042Z,98445.83
2022-08-14T19:21:40.952Z,98452.23
2022-08-14T19:24:34.584Z,98448.14
2022-08-14T19:27:24.647Z,98446.44
2022-08-14T19:30:19.690Z,98443.86
2022-08-14T19:32:55.723Z,98440.88
2022-08-14T19:35:41.668Z,98440.34
2022-08-14T19:38:46.820Z,98441.55
2022-08-14T19:41:22.340Z,98437.48
2022-08-14T19:43:57.150Z,98439.73
2022-08-14T19:46:37.949Z,98441.81
2022-08-14T19:49:23.102Z,98445.79
2022-08-14T19:52:17.630Z,98446.38
2022-08-14T19:54:51.315Z,98441.34
2022-08-14T19:57:31.385Z,98434.77
2022-08-14T20:00:04.645Z,98430.98
2022-08-14T20:02:42.165Z,98430.80
2022-08-14T20:05:12.372Z,98425.79
2022-08-14T20:07:59.527Z,98422.68
2022-08-14T20:11:06.882Z,98422.21
2022-08-14T20:13:29.429Z,98419.43
2022-08-14T20:16:21.301Z,98413.56
2022-08-14T20:19:12.193Z,98421.13
2022-08-14T20:21:58.530Z,98422.16
2022-08-14T20:24:32.431Z,98427.36
2022-08-14T20:27:22.580Z,98417.13
2022-08-14T20:30:35.056Z,98421.32
2022-08-14T20:33:07.765Z,98424.47
2022-08-14T20:35:39.117Z,98418.40
2022-08-14T20:38:33.314Z,98420.33
2022-08-14T20:41:09.548Z,98418.55
2022-08-14T20:43:59.782Z,98417.89
2022-08-14T20:46:38.410Z,98416.98
2022-08-14T20:49:16.835Z,98415.15
2022-08-14T20:51:59.587Z,98417.23
2022-08-14T20:54:34.707Z,98419.34
2022-08-14T20:57:15.773Z,98416.98
2022-08-14T20:59:53.257Z,98411.18
2022-08-14T21:02:38.585Z,98411.04
2022-08-14T21:05:19.457Z,98405.77
2022-08-14T21:07:50.310Z,98394.86
2022-08-14T21:10:35.735Z,98384.65
2022-08-14T21:14:09.154Z,98379.84
2022-08-14T21:15:56.757Z,98378.52
2022-08-14T21:18:35.398Z,98377.25
2022-08-14T21:21:21.213Z,98377.83
2022-08-14T21:23:54.785Z,98381.36
2022-08-14T21:26:49.479Z,98381.35
2022-08-14T21:29:15.404Z,98382.07
2022-08-14T21:31:55.596Z,98382.40
2022-08-14T21:34:31.228Z,98380.91
2022-08-14T21:37:06.414Z,98382.24
2022-08-14T21:39:38.310Z,98377.13
2022-08-14T21:42:06.883Z,98382.12
2022-08-14T21:44:43.794Z,98371.74
2022-08-14T21:47:15.949Z,98370.78
2022-08-14T21:49:48.269Z,98363.70
2022-08-14T21:52:51.454Z,98369.84
2022-08-14T21:55:14.509Z,98374.70
2022-08-14T21:57:55.956Z,98379.58
2022-08-14T22:00:40.103Z,98382.20
2022-08-14T22:03:17.391Z,98382.84
2022-08-14T22:05:49.786Z,98385.05
2022-08-14T22:08:21.405Z,98387.70
2022-08-14T22:10:51.607Z,98393.04
2022-08-14T22:13:24.799Z,98394.66
2022-08-14T22:15:59.666Z,98396.59
2022-08-14T22:18:31.134Z,98398.91
2022-08-14T22:21:00.798Z,98398.98
2022-08-14T22:23:35.943Z,98405.50
2022-08-14T22:26:06.567Z,98409.65
2022-08-14T22:28:35.546Z,98409.93
2022-08-14T22:31:09.880Z,98409.62
2022-08-14T22:33:40.716Z,98406.98
2022-08-14T22:36:34.223Z,98409.45
2022-08-14T22:39:11.248Z,98408.27
2022-08-14T22:41:42.673Z,98400.02
2022-08-14T22:44:16.004Z,98397.23
2022-08-14T22:46:45.129Z,98399.79
2022-08-14T22:49:16.776Z,98396.05
2022-08-14T22:52:32.052Z,98390.90
2022-08-14T22:54:58.826Z,98388.58
2022-08-14T22:57:37.862Z,98388.08
2022-08-14T23:00:25.374Z,98388.73
2022-08-14T23:03:02.023Z,98390.86
2022-08-14T23:05:38.743Z,98394.58
2022-08-14T23:08:59.844Z,98398.15
2022-08-14T23:11:03.087Z,98395.28
2022-08-14T23:13:33.114Z,98396.89
2022-08-14T23:16:01.570Z,98403.01
2022-08-14T23:18:30.554Z,98402.65
2022-08-14T23:20:58.832Z,98405.36
2022-08-14T23:23:27.809Z,98398.23
2022-08-14T23:26:00.695Z,98393.87
2022-08-14T23:28:58.307Z,98387.48
2022-08-14T23:31:34.224Z,98387.92
2022-08-14T23:34:06.935Z,98383.40
2022-08-14T23:36:54.297Z,98376.85
2022-08-14T23:39:32.715Z,98379.41
2022-08-14T23:42:09.254Z,98373.16
2022-08-14T23:44:39.263Z,98374.98
2022-08-14T23:47:12.117Z,98373.71
2022-08-14T23:50:01.212Z,98366.89
2022-08-14T23:52:50.071Z,98366.15
2022-08-14T23:55:26.925Z,98360.78
2022-08-14T23:57:58.052Z,98352.40
